Impacts METAR Board INFO
IDs:

KEWR - Newark Intl, NJ, US

Updated at: 1514 UTC 14 Dec 2017
Potential Impact None Slight Moderate High
Time14/03Z 14/04Z 14/05Z 14/06Z 14/07Z 14/08Z 14/09Z 14/10Z 14/11Z 14/12Z 14/13Z 14/14Z 14/15Z
VIS10 10 1.75 1.75 1 5 8 10 2.5 2.5 1.5 8 8
CIG90 60 14 12 12 18 7 14 16 22 23 75 38
CoverOVCOVCOVCOVCOVCOVCOVCOVCOVCOVCOVCBKNOVC
FltCatVFRVFRIFRIFRIFRMVFRIFRMVFRIFRIFRIFRVFRVFR
WX-----SN-SN BR-SN BR-SN BR-----SN BR-SN BR-SN BR-SN--
WDir260240230000102036010360350350
WSpd10 8 10 0 0 0 6 8 7 9 9 11 11
WGst-- -- -- -- -- -- -- -- -- -- -- -- --
Raw hourly METARs
KEWR 140251Z 26010KT 10SM FEW070 BKN090 OVC130 M03/M15 A2968 RMK AO2 SLP049 T10281150 58002
KEWR 140351Z 24008KT 10SM BKN060 OVC100 M02/M14 A2967 RMK AO2 SLP048 VIRGA T10221144
KEWR 140459Z 23010KT 1 3/4SM -SN FEW009 BKN014 OVC022 M04/M09 A2970 RMK AO2 P0000 T10441089
KEWR 140603Z 00000KT 1 3/4SM -SN BR FEW008 BKN012 OVC020 M05/M07 A2964 RMK AO2 TWR VIS 2 1/2 P0000 T10501072
KEWR 140705Z 00000KT 1SM R04R/P6000FT -SN BR SCT006 BKN012 OVC020 M04/M06 A2962 RMK AO2 SFC VIS 1 1/4 P0001 T10441061
KEWR 140751Z 00000KT 5SM -SN BR SCT012 BKN018 OVC036 M04/M06 A2960 RMK AO2 SLP021 P0002 T10441056
KEWR 140851Z 01006KT 8SM BKN007 OVC014 M04/M06 A2955 RMK AO2 SNE10 SLP007 P0000 60005 T10391056 58031
KEWR 140951Z 02008KT 10SM FEW007 BKN014 OVC021 M04/M06 A2954 RMK AO2 SLP003 T10391056
KEWR 141101Z 36007KT 2 1/2SM -SN BR FEW010 BKN016 OVC034 M04/M06 A2955 RMK AO2 P0000 T10391056
KEWR 141151Z 01009KT 2 1/2SM -SN BR BKN022 OVC040 M04/M06 A2957 RMK AO2 SFC VIS 3 SLP014 931011 4/002 P0000 60005 70006 T10391056 11033 21050 53007
KEWR 141251Z 36009KT 1 1/2SM -SN BR FEW012 BKN023 OVC037 M04/M06 A2959 RMK AO2 SFC VIS 1 3/4 SLP020 P0002 T10391056
KEWR 141351Z 35011KT 8SM -SN SCT010 SCT028 BKN075 BKN250 M03/M05 A2965 RMK AO2 SLP039 SCT028 V BKN P0000 T10281050
KEWR 141451Z 35011KT 8SM SCT014 BKN038 BKN080 OVC250 M02/M06 A2970 RMK AO2 SNE48 SLP057 SCT V BKN P0000 60002 T10221056 53043